createdAt,value
2023-04-05T00:02:06.816Z,100.00
2023-04-05T00:04:36.508Z,100.00
2023-04-05T00:07:08.205Z,100.00
2023-04-05T00:09:37.678Z,100.00
2023-04-05T00:12:09.468Z,100.00
2023-04-05T00:14:38.859Z,100.00
2023-04-05T00:17:10.897Z,100.00
2023-04-05T00:19:43.109Z,100.00
2023-04-05T00:22:12.879Z,100.00
2023-04-05T00:24:43.381Z,100.00
2023-04-05T00:27:14.352Z,100.00
2023-04-05T00:29:43.802Z,100.00
2023-04-05T00:32:13.465Z,100.00
2023-04-05T00:34:42.925Z,100.00
2023-04-05T00:37:13.142Z,100.00
2023-04-05T00:39:42.744Z,100.00
2023-04-05T00:42:13.517Z,100.00
2023-04-05T00:44:42.909Z,100.00
2023-04-05T00:47:12.543Z,100.00
2023-04-05T00:49:43.090Z,100.00
2023-04-05T00:52:13.307Z,100.00
2023-04-05T00:54:43.665Z,100.00
2023-04-05T00:57:15.009Z,100.00
2023-04-05T00:59:44.787Z,100.00
2023-04-05T01:02:20.852Z,100.00
2023-04-05T01:05:01.536Z,100.00
2023-04-05T01:07:42.243Z,100.00
2023-04-05T01:10:15.321Z,100.00
2023-04-05T01:12:47.520Z,100.00
2023-04-05T01:15:20.588Z,100.00
2023-04-05T01:17:54.349Z,100.00
2023-04-05T01:20:28.456Z,100.00
2023-04-05T01:23:37.584Z,100.00
2023-04-05T01:26:50.189Z,100.00
2023-04-05T01:29:59.100Z,100.00
2023-04-05T01:32:56.632Z,100.00
2023-04-05T01:35:38.831Z,100.00
2023-04-05T01:38:13.206Z,100.00
2023-04-05T01:40:43.648Z,100.00
2023-04-05T01:43:18.135Z,100.00
2023-04-05T01:45:49.245Z,100.00
2023-04-05T01:48:18.893Z,100.00
2023-04-05T01:50:48.348Z,100.00
2023-04-05T01:53:18.000Z,100.00
2023-04-05T01:55:47.453Z,100.00
2023-04-05T01:58:16.885Z,100.00
2023-04-05T02:00:47.826Z,100.00
2023-04-05T02:03:17.383Z,100.00
2023-04-05T02:05:47.064Z,100.00
2023-04-05T02:08:16.554Z,100.00
2023-04-05T02:10:46.431Z,100.00
2023-04-05T02:13:16.315Z,100.00
2023-04-05T02:15:51.215Z,100.00
2023-04-05T02:18:22.209Z,100.00
2023-04-05T02:20:52.703Z,100.00
2023-04-05T02:23:22.174Z,100.00
2023-04-05T02:25:51.604Z,100.00
2023-04-05T02:28:21.028Z,100.00
2023-04-05T02:30:51.925Z,100.00
2023-04-05T02:33:22.779Z,100.00
2023-04-05T02:35:54.804Z,100.00
2023-04-05T02:38:24.365Z,100.00
2023-04-05T02:40:53.740Z,100.00
2023-04-05T02:43:23.199Z,100.00
2023-04-05T02:45:54.301Z,100.00
2023-04-05T02:48:23.859Z,100.00
2023-04-05T02:50:55.001Z,100.00
2023-04-05T02:53:27.192Z,100.00
2023-04-05T02:56:02.509Z,100.00
2023-04-05T02:58:33.699Z,100.00
2023-04-05T03:01:07.399Z,100.00
2023-04-05T03:03:38.040Z,100.00
2023-04-05T03:06:10.934Z,100.00
2023-04-05T03:08:51.815Z,100.00
2023-04-05T03:11:25.002Z,100.00
2023-04-05T03:14:00.596Z,100.00
2023-04-05T03:16:51.710Z,100.00
2023-04-05T03:19:27.511Z,100.00
2023-04-05T03:22:03.293Z,100.00
2023-04-05T03:24:36.470Z,100.00
2023-04-05T03:27:08.701Z,100.00
2023-04-05T03:29:45.468Z,100.00
2023-04-05T03:32:20.007Z,100.00
2023-04-05T03:34:55.298Z,100.00
2023-04-05T03:37:25.507Z,100.00
2023-04-05T03:40:07.025Z,100.00
2023-04-05T03:42:37.730Z,100.00
2023-04-05T03:45:09.032Z,100.00
2023-04-05T03:47:39.846Z,100.00
2023-04-05T03:50:11.017Z,100.00
2023-04-05T03:52:40.628Z,100.00
2023-04-05T03:55:10.801Z,100.00
2023-04-05T03:57:43.214Z,100.00
2023-04-05T04:00:24.738Z,100.00
2023-04-05T04:03:14.020Z,100.00
2023-04-05T04:05:47.327Z,100.00
2023-04-05T04:08:16.782Z,100.00
2023-04-05T04:10:46.289Z,100.00
2023-04-05T04:13:23.731Z,100.00
2023-04-05T04:16:02.383Z,100.00
2023-04-05T04:18:54.320Z,100.00
2023-04-05T04:21:39.470Z,100.00
2023-04-05T04:24:36.388Z,100.00
2023-04-05T04:27:39.088Z,100.00
2023-04-05T04:30:22.621Z,100.00
2023-04-05T04:33:12.395Z,100.00
2023-04-05T04:35:55.190Z,100.00
2023-04-05T04:38:44.295Z,100.00
2023-04-05T04:41:48.955Z,100.00
2023-04-05T04:44:36.778Z,100.00
2023-04-05T04:47:23.013Z,100.00
2023-04-05T04:50:01.528Z,100.00
2023-04-05T04:52:35.476Z,100.00
2023-04-05T04:55:05.685Z,100.00
2023-04-05T04:57:35.206Z,100.00
2023-04-05T05:00:12.766Z,100.00
2023-04-05T05:02:44.028Z,100.00
2023-04-05T05:05:16.207Z,100.00
2023-04-05T05:07:47.021Z,100.00
2023-04-05T05:10:17.063Z,100.00
2023-04-05T05:12:48.601Z,100.00
2023-04-05T05:15:18.621Z,100.00
2023-04-05T05:17:52.888Z,100.00
2023-04-05T05:20:23.160Z,100.00
2023-04-05T05:22:54.012Z,100.00
2023-04-05T05:25:23.464Z,100.00
2023-04-05T05:27:52.876Z,100.00
2023-04-05T05:30:25.936Z,100.00
2023-04-05T05:32:55.420Z,100.00
2023-04-05T05:35:24.877Z,100.00
2023-04-05T05:37:56.020Z,100.00
2023-04-05T05:40:26.834Z,100.00
2023-04-05T05:42:56.285Z,100.00
2023-04-05T05:45:25.750Z,100.00
2023-04-05T05:47:56.114Z,100.00
2023-04-05T05:50:25.610Z,100.00
2023-04-05T05:52:56.756Z,100.00
2023-04-05T05:55:26.662Z,100.00
2023-04-05T05:57:56.105Z,100.00
2023-04-05T06:00:25.759Z,100.00
2023-04-05T06:02:55.490Z,100.00
2023-04-05T06:05:25.552Z,100.00
2023-04-05T06:07:56.328Z,100.00
2023-04-05T06:10:25.773Z,100.00
2023-04-05T06:12:55.152Z,100.00
2023-04-05T06:15:24.562Z,100.00
2023-04-05T06:17:53.976Z,100.00
2023-04-05T06:20:23.388Z,100.00
2023-04-05T06:22:52.888Z,100.00
2023-04-05T06:25:23.697Z,100.00
2023-04-05T06:27:53.116Z,100.00
2023-04-05T06:30:22.954Z,100.00
2023-04-05T06:32:54.553Z,100.00
2023-04-05T06:35:25.130Z,100.00
2023-04-05T06:37:54.780Z,100.00
2023-04-05T06:40:25.572Z,100.00
2023-04-05T06:42:55.726Z,100.00
2023-04-05T06:45:31.401Z,100.00
2023-04-05T06:48:00.946Z,100.00
2023-04-05T06:50:30.426Z,100.00
2023-04-05T06:52:59.966Z,100.00
2023-04-05T06:55:31.171Z,100.00
2023-04-05T06:58:00.621Z,100.00
2023-04-05T07:00:30.123Z,100.00
2023-04-05T07:02:59.590Z,100.00
2023-04-05T07:05:29.047Z,100.00
2023-04-05T07:07:58.400Z,100.00
2023-04-05T07:10:27.786Z,100.00
2023-04-05T07:12:58.591Z,100.00
2023-04-05T07:15:28.232Z,100.00
2023-04-05T07:17:57.674Z,100.00
2023-04-05T07:20:27.166Z,100.00
2023-04-05T07:22:57.864Z,100.00
2023-04-05T07:25:27.690Z,100.00
2023-04-05T07:27:58.511Z,100.00
2023-04-05T07:30:28.946Z,100.00
2023-04-05T07:32:58.395Z,100.00
2023-04-05T07:35:28.565Z,100.00
2023-04-05T07:37:57.983Z,100.00
2023-04-05T07:40:27.752Z,100.00
2023-04-05T07:42:58.541Z,100.00
2023-04-05T07:45:27.984Z,100.00
2023-04-05T07:47:57.439Z,100.00
2023-04-05T07:50:28.160Z,100.00
2023-04-05T07:52:57.514Z,100.00
2023-04-05T07:55:27.340Z,100.00
2023-04-05T07:57:58.390Z,100.00
2023-04-05T08:00:27.923Z,100.00
2023-04-05T08:03:01.314Z,100.00
2023-04-05T08:05:31.622Z,100.00
2023-04-05T08:08:01.363Z,100.00
2023-04-05T08:10:30.875Z,100.00
2023-04-05T08:13:01.766Z,100.00
2023-04-05T08:15:31.348Z,100.00
2023-04-05T08:18:00.887Z,100.00
2023-04-05T08:20:30.354Z,100.00
2023-04-05T08:22:59.874Z,100.00
2023-04-05T08:25:29.273Z,100.00
2023-04-05T08:27:58.634Z,100.00
2023-04-05T08:30:29.578Z,99.75
2023-04-05T08:32:59.082Z,100.00
2023-04-05T08:35:28.573Z,95.35
2023-04-05T08:37:58.137Z,89.92
2023-04-05T08:40:42.654Z,92.98
2023-04-05T08:43:20.472Z,83.69
2023-04-05T08:45:54.287Z,79.78
2023-04-05T08:48:23.808Z,79.25
2023-04-05T08:50:55.617Z,74.82
2023-04-05T08:53:25.121Z,78.38
2023-04-05T08:55:58.197Z,75.19
2023-04-05T08:58:29.807Z,73.75
2023-04-05T09:01:01.690Z,70.46
2023-04-05T09:03:37.998Z,68.75
2023-04-05T09:06:11.847Z,70.47
2023-04-05T09:08:42.163Z,71.21
2023-04-05T09:11:13.490Z,70.68
2023-04-05T09:13:42.867Z,68.45
2023-04-05T09:16:16.015Z,68.13
2023-04-05T09:18:45.760Z,65.92
2023-04-05T09:21:16.247Z,67.04
2023-04-05T09:23:56.346Z,63.84
2023-04-05T09:26:27.423Z,63.90
2023-04-05T09:29:00.841Z,61.98
2023-04-05T09:31:37.207Z,60.66
2023-04-05T09:34:21.504Z,60.51
2023-04-05T09:36:51.373Z,58.79
2023-04-05T09:39:31.550Z,58.59
2023-04-05T09:42:11.957Z,58.00
2023-04-05T09:45:01.440Z,57.49
2023-04-05T09:47:35.328Z,59.32
2023-04-05T09:50:21.918Z,59.70
2023-04-05T09:52:52.512Z,57.25
2023-04-05T09:55:29.871Z,55.45
2023-04-05T09:57:59.422Z,54.86
2023-04-05T10:00:31.154Z,55.38
2023-04-05T10:03:02.120Z,53.34
2023-04-05T10:05:32.548Z,53.18
2023-04-05T10:08:02.689Z,54.49
2023-04-05T10:10:37.061Z,53.24
2023-04-05T10:13:07.324Z,52.03
2023-04-05T10:15:37.314Z,53.67
2023-04-05T10:18:19.248Z,51.99
2023-04-05T10:20:53.373Z,53.57
2023-04-05T10:23:29.339Z,53.48
2023-04-05T10:26:14.202Z,53.87
2023-04-05T10:28:49.056Z,53.19
2023-04-05T10:31:37.274Z,51.64
2023-04-05T10:34:28.067Z,53.83
2023-04-05T10:37:02.610Z,50.25
2023-04-05T10:39:42.052Z,52.14
2023-04-05T10:42:22.166Z,50.54
2023-04-05T10:44:55.611Z,51.02
2023-04-05T10:47:28.062Z,51.88
2023-04-05T10:50:05.218Z,51.13
2023-04-05T10:52:35.563Z,51.54
2023-04-05T10:55:05.888Z,50.41
2023-04-05T10:57:36.091Z,51.61
2023-04-05T11:00:08.870Z,48.47
2023-04-05T11:02:38.947Z,49.53
2023-04-05T11:05:32.991Z,48.79
2023-04-05T11:08:07.867Z,49.39
2023-04-05T11:10:40.697Z,51.43
2023-04-05T11:13:11.836Z,51.06
2023-04-05T11:15:41.640Z,50.12
2023-04-05T11:18:13.530Z,48.92
2023-04-05T11:20:55.938Z,48.91
2023-04-05T11:23:27.031Z,50.91
2023-04-05T11:26:05.263Z,50.18
2023-04-05T11:28:39.597Z,48.63
2023-04-05T11:31:19.155Z,48.40
2023-04-05T11:34:11.101Z,47.48
2023-04-05T11:36:47.880Z,46.33
2023-04-05T11:39:30.870Z,49.23
2023-04-05T11:42:04.394Z,48.10
2023-04-05T11:44:54.316Z,44.03
2023-04-05T11:47:23.802Z,46.01
2023-04-05T11:49:53.890Z,45.85
2023-04-05T11:52:24.695Z,47.73
2023-04-05T11:54:54.065Z,47.00
2023-04-05T11:57:25.433Z,47.58
2023-04-05T11:59:55.190Z,47.52
2023-04-05T12:02:25.364Z,46.78
2023-04-05T12:04:58.875Z,45.97
2023-04-05T12:07:36.820Z,43.81
2023-04-05T12:10:11.692Z,43.64
2023-04-05T12:12:45.325Z,43.56
2023-04-05T12:15:18.754Z,42.12
2023-04-05T12:17:51.004Z,43.87
2023-04-05T12:20:24.844Z,41.75
2023-04-05T12:22:57.986Z,45.17
2023-04-05T12:25:27.611Z,43.34
2023-04-05T12:27:56.928Z,43.13
2023-04-05T12:30:36.138Z,42.15
2023-04-05T12:33:10.371Z,41.71
2023-04-05T12:35:40.982Z,42.16
2023-04-05T12:38:17.436Z,41.67
2023-04-05T12:40:46.982Z,41.60
2023-04-05T12:43:19.929Z,43.15
2023-04-05T12:45:50.832Z,44.86
2023-04-05T12:48:25.667Z,42.94
2023-04-05T12:50:55.192Z,42.42
2023-04-05T12:53:28.737Z,42.61
2023-04-05T12:55:59.550Z,40.91
2023-04-05T12:58:37.085Z,39.93
2023-04-05T13:01:07.121Z,41.48
2023-04-05T13:03:36.725Z,40.40
2023-04-05T13:06:06.301Z,41.14
2023-04-05T13:08:37.055Z,38.34
2023-04-05T13:11:06.742Z,41.34
2023-04-05T13:13:36.080Z,39.05
2023-04-05T13:16:05.970Z,40.21
2023-04-05T13:18:35.572Z,42.95
2023-04-05T13:21:07.706Z,40.06
2023-04-05T13:23:40.596Z,38.34
2023-04-05T13:26:10.294Z,37.62
2023-04-05T13:28:39.677Z,40.87
2023-04-05T13:31:09.193Z,39.56
2023-04-05T13:33:38.645Z,36.47
2023-04-05T13:36:11.023Z,39.35
2023-04-05T13:38:42.420Z,38.83
2023-04-05T13:41:11.884Z,36.47
2023-04-05T13:43:41.331Z,38.69
2023-04-05T13:46:10.941Z,39.96
2023-04-05T13:48:40.352Z,37.94
2023-04-05T13:51:09.801Z,36.62
2023-04-05T13:53:39.265Z,35.82
2023-04-05T13:56:10.289Z,37.19
2023-04-05T13:58:39.882Z,35.02
2023-04-05T14:01:09.267Z,34.83
2023-04-05T14:03:38.781Z,35.52
2023-04-05T14:06:08.922Z,35.67
2023-04-05T14:08:38.348Z,35.89
2023-04-05T14:11:09.652Z,36.80
2023-04-05T14:13:39.137Z,38.77
2023-04-05T14:16:08.821Z,38.50
2023-04-05T14:18:38.468Z,39.10
2023-04-05T14:21:08.242Z,36.08
2023-04-05T14:23:38.032Z,35.42
2023-04-05T14:26:09.292Z,35.42
2023-04-05T14:28:38.939Z,34.90
2023-04-05T14:31:08.780Z,36.23
2023-04-05T14:33:38.341Z,34.59
2023-04-05T14:36:08.328Z,33.30
2023-04-05T14:38:37.967Z,34.09
2023-04-05T14:41:10.180Z,34.01
2023-04-05T14:43:40.607Z,32.34
2023-04-05T14:46:10.296Z,34.23
2023-04-05T14:48:39.986Z,33.74
2023-04-05T14:51:09.650Z,30.67
2023-04-05T14:53:39.315Z,32.33
2023-04-05T14:56:10.958Z,33.04
2023-04-05T14:58:40.734Z,34.08
2023-04-05T15:01:11.026Z,34.15
2023-04-05T15:03:40.916Z,32.78
2023-04-05T15:06:10.795Z,31.82
2023-04-05T15:08:40.613Z,34.50
2023-04-05T15:11:11.659Z,34.23
2023-04-05T15:13:41.331Z,34.56
2023-04-05T15:16:11.503Z,33.84
2023-04-05T15:18:41.615Z,34.62
2023-04-05T15:21:11.708Z,32.99
2023-04-05T15:23:41.390Z,32.25
2023-04-05T15:26:12.578Z,31.42
2023-04-05T15:28:42.210Z,32.62
2023-04-05T15:31:12.017Z,31.34
2023-04-05T15:33:41.684Z,31.93
2023-04-05T15:36:11.674Z,30.92
2023-04-05T15:38:41.410Z,32.77
2023-04-05T15:41:12.364Z,32.14
2023-04-05T15:43:41.957Z,31.33
2023-04-05T15:46:11.912Z,31.42
2023-04-05T15:48:43.671Z,32.28
2023-04-05T15:51:13.265Z,32.97
2023-04-05T15:53:42.900Z,33.33
2023-04-05T15:56:13.900Z,33.90
2023-04-05T15:58:43.595Z,33.42
2023-04-05T16:01:13.400Z,33.10
2023-04-05T16:03:43.682Z,33.11
2023-04-05T16:06:13.342Z,33.62
2023-04-05T16:08:43.065Z,33.57
2023-04-05T16:11:14.144Z,34.46
2023-04-05T16:13:43.760Z,33.60
2023-04-05T16:16:20.484Z,33.91
2023-04-05T16:18:54.198Z,35.25
2023-04-05T16:21:23.999Z,35.36
2023-04-05T16:23:53.668Z,34.33
2023-04-05T16:26:24.624Z,35.31
2023-04-05T16:28:54.752Z,35.22
2023-04-05T16:31:24.654Z,35.74
2023-04-05T16:33:54.602Z,36.15
2023-04-05T16:36:24.290Z,36.12
2023-04-05T16:38:53.917Z,36.71
2023-04-05T16:41:24.916Z,36.76
2023-04-05T16:43:54.506Z,37.28
2023-04-05T16:46:24.157Z,37.61
2023-04-05T16:48:53.847Z,38.24
2023-04-05T16:51:23.546Z,38.09
2023-04-05T16:53:53.234Z,38.63
2023-04-05T16:56:24.587Z,39.79
2023-04-05T16:58:55.064Z,39.95
2023-04-05T17:01:24.958Z,39.55
2023-04-05T17:03:54.621Z,41.01
2023-04-05T17:06:24.249Z,40.56
2023-04-05T17:08:53.917Z,40.69
2023-04-05T17:11:24.924Z,41.06
2023-04-05T17:13:54.592Z,41.58
2023-04-05T17:16:25.174Z,41.72
2023-04-05T17:18:54.899Z,42.08
2023-04-05T17:21:25.829Z,42.57
2023-04-05T17:23:55.915Z,43.01
2023-04-05T17:26:27.126Z,43.36
2023-04-05T17:28:56.799Z,43.47
2023-04-05T17:31:26.904Z,43.75
2023-04-05T17:33:56.553Z,44.06
2023-04-05T17:36:27.350Z,44.42
2023-04-05T17:38:57.044Z,44.78
2023-04-05T17:41:28.094Z,45.16
2023-04-05T17:43:58.518Z,45.51
2023-04-05T17:46:40.234Z,45.78
2023-04-05T17:49:12.604Z,46.14
2023-04-05T17:51:42.388Z,46.30
2023-04-05T17:54:12.526Z,46.47
2023-04-05T17:56:43.528Z,47.29
2023-04-05T17:59:13.113Z,47.65
2023-04-05T18:01:42.958Z,48.11
2023-04-05T18:04:12.826Z,47.98
2023-04-05T18:06:42.586Z,48.61
2023-04-05T18:09:12.210Z,48.88
2023-04-05T18:11:43.150Z,49.77
2023-04-05T18:14:12.810Z,50.37
2023-04-05T18:16:42.539Z,51.04
2023-04-05T18:19:12.147Z,51.64
2023-04-05T18:21:41.776Z,51.78
2023-04-05T18:24:12.909Z,52.50
2023-04-05T18:26:45.099Z,53.48
2023-04-05T18:29:14.812Z,53.52
2023-04-05T18:31:44.470Z,54.02
2023-04-05T18:34:14.116Z,54.66
2023-04-05T18:36:43.870Z,55.43
2023-04-05T18:39:13.899Z,55.83
2023-04-05T18:41:44.905Z,56.47
2023-04-05T18:44:14.687Z,57.21
2023-04-05T18:46:45.107Z,57.97
2023-04-05T18:49:15.870Z,57.91
2023-04-05T18:51:46.106Z,58.29
2023-04-05T18:54:18.316Z,58.95
2023-04-05T18:56:49.349Z,60.39
2023-04-05T18:59:19.840Z,61.22
2023-04-05T19:01:49.676Z,62.09
2023-04-05T19:04:19.339Z,63.54
2023-04-05T19:06:49.035Z,65.03
2023-04-05T19:09:19.627Z,66.78
2023-04-05T19:11:50.920Z,68.58
2023-04-05T19:14:20.817Z,71.41
2023-04-05T19:16:50.582Z,72.59
2023-04-05T19:19:20.187Z,73.49
2023-04-05T19:21:49.834Z,74.34
2023-04-05T19:24:20.842Z,75.40
2023-04-05T19:26:52.043Z,77.24
2023-04-05T19:29:21.786Z,78.45
2023-04-05T19:31:51.921Z,79.37
2023-04-05T19:34:21.670Z,79.70
2023-04-05T19:36:51.283Z,81.88
2023-04-05T19:39:25.461Z,83.24
2023-04-05T19:41:57.730Z,85.16
2023-04-05T19:44:51.576Z,87.91
2023-04-05T19:47:22.261Z,90.10
2023-04-05T19:49:55.940Z,90.47
2023-04-05T19:52:46.463Z,90.72
2023-04-05T19:55:33.789Z,90.27
2023-04-05T19:58:10.361Z,90.54
2023-04-05T20:00:48.458Z,93.65
2023-04-05T20:03:30.469Z,95.74
2023-04-05T20:06:10.307Z,96.71
2023-04-05T20:08:42.998Z,97.80
2023-04-05T20:11:15.750Z,99.56
2023-04-05T20:13:50.830Z,100.00
2023-04-05T20:16:27.560Z,100.00
2023-04-05T20:19:03.010Z,100.00
2023-04-05T20:21:33.331Z,100.00
2023-04-05T20:24:04.404Z,100.00
2023-04-05T20:26:34.653Z,100.00
2023-04-05T20:29:10.157Z,100.00
2023-04-05T20:31:40.288Z,100.00
2023-04-05T20:34:12.756Z,100.00
2023-04-05T20:36:51.274Z,100.00
2023-04-05T20:39:23.522Z,100.00
2023-04-05T20:41:53.484Z,100.00
2023-04-05T20:44:25.210Z,100.00
2023-04-05T20:46:57.724Z,100.00
2023-04-05T20:49:29.068Z,100.00
2023-04-05T20:51:58.838Z,100.00
2023-04-05T20:54:28.689Z,100.00
2023-04-05T20:56:58.368Z,100.00
2023-04-05T20:59:29.360Z,100.00
2023-04-05T21:01:59.078Z,100.00
2023-04-05T21:04:30.124Z,100.00
2023-04-05T21:06:59.861Z,100.00
2023-04-05T21:09:30.115Z,100.00
2023-04-05T21:11:59.985Z,100.00
2023-04-05T21:14:31.040Z,100.00
2023-04-05T21:17:00.661Z,100.00
2023-04-05T21:19:30.454Z,100.00
2023-04-05T21:22:00.228Z,100.00
2023-04-05T21:24:29.878Z,100.00
2023-04-05T21:26:59.570Z,100.00
2023-04-05T21:29:30.571Z,100.00
2023-04-05T21:32:00.245Z,100.00
2023-04-05T21:34:29.877Z,100.00
2023-04-05T21:36:59.511Z,100.00
2023-04-05T21:39:29.160Z,100.00
2023-04-05T21:41:59.215Z,100.00
2023-04-05T21:44:30.286Z,100.00
2023-04-05T21:47:00.201Z,100.00
2023-04-05T21:49:29.902Z,100.00
2023-04-05T21:51:59.535Z,100.00
2023-04-05T21:54:29.138Z,100.00
2023-04-05T21:56:58.809Z,100.00
2023-04-05T21:59:29.895Z,100.00
2023-04-05T22:01:59.715Z,100.00
2023-04-05T22:04:30.006Z,100.00
2023-04-05T22:06:59.672Z,100.00
2023-04-05T22:09:34.732Z,100.00
2023-04-05T22:12:05.173Z,100.00
2023-04-05T22:14:36.187Z,100.00
2023-04-05T22:17:05.916Z,100.00
2023-04-05T22:19:35.621Z,100.00
2023-04-05T22:22:05.584Z,100.00
2023-04-05T22:24:35.152Z,100.00
2023-04-05T22:27:04.833Z,100.00
2023-04-05T22:29:36.094Z,100.00
2023-04-05T22:32:06.489Z,100.00
2023-04-05T22:34:36.251Z,100.00
2023-04-05T22:37:05.869Z,100.00
2023-04-05T22:39:35.584Z,100.00
2023-04-05T22:42:05.895Z,100.00
2023-04-05T22:44:36.894Z,100.00
2023-04-05T22:47:06.631Z,100.00
2023-04-05T22:49:36.700Z,100.00
2023-04-05T22:52:06.506Z,100.00
2023-04-05T22:54:36.204Z,100.00
2023-04-05T22:57:05.878Z,100.00
2023-04-05T22:59:42.732Z,100.00
2023-04-05T23:02:12.539Z,100.00
2023-04-05T23:04:42.581Z,100.00
2023-04-05T23:07:12.297Z,100.00
2023-04-05T23:09:41.992Z,100.00
2023-04-05T23:12:11.655Z,100.00
2023-04-05T23:14:42.707Z,100.00
2023-04-05T23:17:12.388Z,100.00
2023-04-05T23:19:42.038Z,100.00
2023-04-05T23:22:11.884Z,100.00
2023-04-05T23:24:41.485Z,100.00
2023-04-05T23:27:11.147Z,100.00
2023-04-05T23:29:42.126Z,100.00
2023-04-05T23:32:12.818Z,100.00
2023-04-05T23:34:42.440Z,100.00
2023-04-05T23:37:12.223Z,100.00
2023-04-05T23:39:41.958Z,100.00
2023-04-05T23:42:11.784Z,100.00
2023-04-05T23:44:42.760Z,100.00
2023-04-05T23:47:12.346Z,100.00
2023-04-05T23:49:42.024Z,100.00
2023-04-05T23:52:11.705Z,100.00
2023-04-05T23:54:41.509Z,100.00
2023-04-05T23:57:11.238Z,100.00
2023-04-05T23:59:42.278Z,100.00
